sensor_id;sensor_type;location;lat;lon;timestamp;temperature;humidity
49821;DHT22;36893;52.520;13.450;2023-03-13T00:04:25;20.20;72.50
49821;DHT22;36893;52.520;13.450;2023-03-13T00:14:25;20.10;72.40
49821;DHT22;36893;52.520;13.450;2023-03-13T00:24:26;20.10;72.60
49821;DHT22;36893;52.520;13.450;2023-03-13T00:34:27;20.10;72.60
49821;DHT22;36893;52.520;13.450;2023-03-13T00:44:27;20.00;72.50
49821;DHT22;36893;52.520;13.450;2023-03-13T00:54:28;20.00;72.50
49821;DHT22;36893;52.520;13.450;2023-03-13T01:04:29;20.00;72.50
49821;DHT22;36893;52.520;13.450;2023-03-13T01:14:29;20.00;72.60
49821;DHT22;36893;52.520;13.450;2023-03-13T01:24:30;19.90;73.30
49821;DHT22;36893;52.520;13.450;2023-03-13T01:34:30;19.90;72.50
49821;DHT22;36893;52.520;13.450;2023-03-13T01:44:49;19.90;72.50
49821;DHT22;36893;52.520;13.450;2023-03-13T01:55:06;19.90;72.60
49821;DHT22;36893;52.520;13.450;2023-03-13T02:05:09;19.80;72.50
49821;DHT22;36893;52.520;13.450;2023-03-13T02:15:18;19.80;72.60
49821;DHT22;36893;52.520;13.450;2023-03-13T02:35:23;19.80;72.50
49821;DHT22;36893;52.520;13.450;2023-03-13T02:45:24;19.80;72.50
49821;DHT22;36893;52.520;13.450;2023-03-13T02:55:29;19.80;72.50
49821;DHT22;36893;52.520;13.450;2023-03-13T03:05:31;19.80;72.50
49821;DHT22;36893;52.520;13.450;2023-03-13T03:15:31;19.70;72.50
49821;DHT22;36893;52.520;13.450;2023-03-13T03:25:32;19.70;72.60
49821;DHT22;36893;52.520;13.450;2023-03-13T03:35:33;19.70;72.50
49821;DHT22;36893;52.520;13.450;2023-03-13T03:45:37;19.70;72.50
49821;DHT22;36893;52.520;13.450;2023-03-13T03:55:38;19.70;72.50
49821;DHT22;36893;52.520;13.450;2023-03-13T04:05:39;19.70;72.50
49821;DHT22;36893;52.520;13.450;2023-03-13T04:15:40;19.70;72.50
49821;DHT22;36893;52.520;13.450;2023-03-13T04:25:42;19.70;72.50
49821;DHT22;36893;52.520;13.450;2023-03-13T04:35:43;19.70;72.50
49821;DHT22;36893;52.520;13.450;2023-03-13T04:45:44;19.70;72.50
49821;DHT22;36893;52.520;13.450;2023-03-13T04:55:46;19.70;72.50
49821;DHT22;36893;52.520;13.450;2023-03-13T05:05:48;19.70;72.60
49821;DHT22;36893;52.520;13.450;2023-03-13T05:15:48;19.70;72.60
49821;DHT22;36893;52.520;13.450;2023-03-13T05:25:49;19.60;72.50
49821;DHT22;36893;52.520;13.450;2023-03-13T05:35:50;19.70;72.60
49821;DHT22;36893;52.520;13.450;2023-03-13T05:45:50;19.90;72.20
49821;DHT22;36893;52.520;13.450;2023-03-13T05:55:51;20.10;72.00
49821;DHT22;36893;52.520;13.450;2023-03-13T06:05:57;20.20;71.80
49821;DHT22;36893;52.520;13.450;2023-03-13T06:15:58;20.40;71.70
49821;DHT22;36893;52.520;13.450;2023-03-13T06:25:59;20.50;71.70
49821;DHT22;36893;52.520;13.450;2023-03-13T06:36:01;20.50;71.60
49821;DHT22;36893;52.520;13.450;2023-03-13T06:46:03;20.60;71.60
49821;DHT22;36893;52.520;13.450;2023-03-13T06:56:05;20.70;71.60
49821;DHT22;36893;52.520;13.450;2023-03-13T07:06:07;20.70;71.60
49821;DHT22;36893;52.520;13.450;2023-03-13T07:16:10;20.80;71.60
49821;DHT22;36893;52.520;13.450;2023-03-13T07:26:13;20.80;71.60
49821;DHT22;36893;52.520;13.450;2023-03-13T07:36:14;20.90;71.50
49821;DHT22;36893;52.520;13.450;2023-03-13T07:46:19;20.90;71.60
49821;DHT22;36893;52.520;13.450;2023-03-13T07:56:23;21.00;71.80
49821;DHT22;36893;52.520;13.450;2023-03-13T08:06:25;21.00;71.70
49821;DHT22;36893;52.520;13.450;2023-03-13T08:16:28;21.10;71.80
49821;DHT22;36893;52.520;13.450;2023-03-13T08:26:31;21.10;71.80
49821;DHT22;36893;52.520;13.450;2023-03-13T08:36:34;21.20;71.90
49821;DHT22;36893;52.520;13.450;2023-03-13T08:46:36;21.20;71.90
49821;DHT22;36893;52.520;13.450;2023-03-13T08:56:37;21.20;71.80
49821;DHT22;36893;52.520;13.450;2023-03-13T09:06:40;21.20;71.90
49821;DHT22;36893;52.520;13.450;2023-03-13T09:16:40;21.20;72.00
49821;DHT22;36893;52.520;13.450;2023-03-13T09:26:41;21.30;72.20
49821;DHT22;36893;52.520;13.450;2023-03-13T09:36:42;21.30;72.20
49821;DHT22;36893;52.520;13.450;2023-03-13T09:47:05;21.40;72.20
49821;DHT22;36893;52.520;13.450;2023-03-13T10:07:21;21.40;72.40
49821;DHT22;36893;52.520;13.450;2023-03-13T10:17:34;21.50;72.40
49821;DHT22;36893;52.520;13.450;2023-03-13T10:27:49;21.50;72.50
49821;DHT22;36893;52.520;13.450;2023-03-13T10:38:00;21.50;72.50
49821;DHT22;36893;52.520;13.450;2023-03-13T10:48:14;21.60;72.40
49821;DHT22;36893;52.520;13.450;2023-03-13T10:58:32;21.60;72.40
49821;DHT22;36893;52.520;13.450;2023-03-13T11:08:35;21.60;72.40
49821;DHT22;36893;52.520;13.450;2023-03-13T11:29:39;21.60;72.60
49821;DHT22;36893;52.520;13.450;2023-03-13T11:39:52;21.60;72.60
49821;DHT22;36893;52.520;13.450;2023-03-13T12:00:21;21.50;73.30
49821;DHT22;36893;52.520;13.450;2023-03-13T12:10:40;21.50;73.90
49821;DHT22;36893;52.520;13.450;2023-03-13T12:21:03;21.60;74.30
49821;DHT22;36893;52.520;13.450;2023-03-13T12:31:28;21.70;74.60
49821;DHT22;36893;52.520;13.450;2023-03-13T12:41:42;21.70;75.00
49821;DHT22;36893;52.520;13.450;2023-03-13T12:52:05;21.70;75.20
49821;DHT22;36893;52.520;13.450;2023-03-13T13:02:27;21.70;75.50
49821;DHT22;36893;52.520;13.450;2023-03-13T13:12:29;21.70;75.50
49821;DHT22;36893;52.520;13.450;2023-03-13T13:32:39;21.60;76.60
49821;DHT22;36893;52.520;13.450;2023-03-13T13:42:52;21.70;75.80
49821;DHT22;36893;52.520;13.450;2023-03-13T14:03:41;21.70;75.70
49821;DHT22;36893;52.520;13.450;2023-03-13T14:13:42;21.60;75.50
49821;DHT22;36893;52.520;13.450;2023-03-13T14:23:45;21.60;75.50
49821;DHT22;36893;52.520;13.450;2023-03-13T14:33:46;21.60;75.50
49821;DHT22;36893;52.520;13.450;2023-03-13T14:43:47;21.60;75.30
49821;DHT22;36893;52.520;13.450;2023-03-13T14:53:56;21.60;75.30
49821;DHT22;36893;52.520;13.450;2023-03-13T15:04:01;21.60;75.20
49821;DHT22;36893;52.520;13.450;2023-03-13T15:14:02;21.60;75.20
49821;DHT22;36893;52.520;13.450;2023-03-13T15:24:12;21.50;75.10
49821;DHT22;36893;52.520;13.450;2023-03-13T15:34:14;21.50;75.10
49821;DHT22;36893;52.520;13.450;2023-03-13T15:44:15;21.60;75.10
49821;DHT22;36893;52.520;13.450;2023-03-13T15:54:16;21.50;75.00
49821;DHT22;36893;52.520;13.450;2023-03-13T16:04:16;21.50;74.90
49821;DHT22;36893;52.520;13.450;2023-03-13T16:14:18;21.50;75.60
49821;DHT22;36893;52.520;13.450;2023-03-13T16:24:19;21.50;74.80
49821;DHT22;36893;52.520;13.450;2023-03-13T16:34:20;21.50;74.70
49821;DHT22;36893;52.520;13.450;2023-03-13T16:44:20;21.50;74.60
49821;DHT22;36893;52.520;13.450;2023-03-13T16:54:21;21.40;74.50
49821;DHT22;36893;52.520;13.450;2023-03-13T17:04:21;21.50;74.50
49821;DHT22;36893;52.520;13.450;2023-03-13T17:14:22;21.40;74.40
49821;DHT22;36893;52.520;13.450;2023-03-13T17:24:23;21.40;74.30
49821;DHT22;36893;52.520;13.450;2023-03-13T17:34:23;21.40;74.20
49821;DHT22;36893;52.520;13.450;2023-03-13T17:44:26;21.40;74.20
49821;DHT22;36893;52.520;13.450;2023-03-13T17:54:26;21.40;74.20
49821;DHT22;36893;52.520;13.450;2023-03-13T18:04:27;21.40;74.20
49821;DHT22;36893;52.520;13.450;2023-03-13T18:14:28;21.30;73.90
49821;DHT22;36893;52.520;13.450;2023-03-13T18:24:28;21.30;73.90
49821;DHT22;36893;52.520;13.450;2023-03-13T18:34:29;21.30;74.00
49821;DHT22;36893;52.520;13.450;2023-03-13T18:44:30;21.20;73.90
49821;DHT22;36893;52.520;13.450;2023-03-13T18:54:30;21.20;74.00
49821;DHT22;36893;52.520;13.450;2023-03-13T19:04:31;21.20;74.00
49821;DHT22;36893;52.520;13.450;2023-03-13T19:14:31;21.20;74.10
49821;DHT22;36893;52.520;13.450;2023-03-13T19:24:33;21.20;74.10
49821;DHT22;36893;52.520;13.450;2023-03-13T19:34:33;21.20;74.20
49821;DHT22;36893;52.520;13.450;2023-03-13T19:44:35;21.10;74.10
49821;DHT22;36893;52.520;13.450;2023-03-13T19:54:35;21.10;74.10
49821;DHT22;36893;52.520;13.450;2023-03-13T20:04:36;21.10;74.30
49821;DHT22;36893;52.520;13.450;2023-03-13T20:14:37;21.10;74.20
49821;DHT22;36893;52.520;13.450;2023-03-13T20:24:37;21.10;74.20
49821;DHT22;36893;52.520;13.450;2023-03-13T20:34:38;21.10;74.20
49821;DHT22;36893;52.520;13.450;2023-03-13T20:44:39;21.10;74.10
49821;DHT22;36893;52.520;13.450;2023-03-13T20:54:40;21.10;74.10
49821;DHT22;36893;52.520;13.450;2023-03-13T21:04:41;21.00;74.10
49821;DHT22;36893;52.520;13.450;2023-03-13T21:14:41;21.00;74.10
49821;DHT22;36893;52.520;13.450;2023-03-13T21:24:42;21.00;74.10
49821;DHT22;36893;52.520;13.450;2023-03-13T21:34:43;21.00;74.00
49821;DHT22;36893;52.520;13.450;2023-03-13T21:44:43;21.00;74.00
49821;DHT22;36893;52.520;13.450;2023-03-13T21:54:45;20.90;74.00
49821;DHT22;36893;52.520;13.450;2023-03-13T22:04:45;21.00;74.10
49821;DHT22;36893;52.520;13.450;2023-03-13T22:14:46;21.00;74.20
49821;DHT22;36893;52.520;13.450;2023-03-13T22:24:47;21.00;74.30
49821;DHT22;36893;52.520;13.450;2023-03-13T22:34:47;21.00;74.40
49821;DHT22;36893;52.520;13.450;2023-03-13T22:44:48;20.90;74.50
49821;DHT22;36893;52.520;13.450;2023-03-13T22:54:49;20.90;74.50
49821;DHT22;36893;52.520;13.450;2023-03-13T23:04:49;20.90;74.70
49821;DHT22;36893;52.520;13.450;2023-03-13T23:14:51;20.90;74.70
49821;DHT22;36893;52.520;13.450;2023-03-13T23:24:52;20.90;74.70
49821;DHT22;36893;52.520;13.450;2023-03-13T23:34:53;20.90;74.70
49821;DHT22;36893;52.520;13.450;2023-03-13T23:44:54;20.90;74.70
49821;DHT22;36893;52.520;13.450;2023-03-13T23:54:54;20.90;74.80
